sensor_id;sensor_type;location;lat;lon;timestamp;pressure;altitude;pressure_sealevel;temperature;humidity
44872;BME280;30602;51.060;17.226;2023-05-20T00:03:21;102524.66;;;11.70;100.00
44872;BME280;30602;51.060;17.226;2023-05-20T00:07:08;102522.74;;;11.72;99.90
44872;BME280;30602;51.060;17.226;2023-05-20T00:10:48;102480.73;;;11.53;100.00
44872;BME280;30602;51.060;17.226;2023-05-20T00:14:12;102523.76;;;11.81;100.00
44872;BME280;30602;51.060;17.226;2023-05-20T00:17:55;102521.33;;;11.85;99.39
44872;BME280;30602;51.060;17.226;2023-05-20T00:21:33;102526.13;;;11.94;99.17
44872;BME280;30602;51.060;17.226;2023-05-20T00:25:21;102522.85;;;11.97;99.27
44872;BME280;30602;51.060;17.226;2023-05-20T00:28:48;102522.67;;;11.92;99.64
44872;BME280;30602;51.060;17.226;2023-05-20T00:32:49;102523.23;;;11.86;99.67
44872;BME280;30602;51.060;17.226;2023-05-20T00:36:49;102524.82;;;11.85;99.41
44872;BME280;30602;51.060;17.226;2023-05-20T00:40:08;102523.90;;;11.77;99.48
44872;BME280;30602;51.060;17.226;2023-05-20T00:44:31;102524.56;;;11.75;98.74
44872;BME280;30602;51.060;17.226;2023-05-20T00:48:00;102515.63;;;11.74;98.66
44872;BME280;30602;51.060;17.226;2023-05-20T00:51:35;102514.05;;;11.64;98.76
44872;BME280;30602;51.060;17.226;2023-05-20T00:54:59;102515.45;;;11.73;98.98
44872;BME280;30602;51.060;17.226;2023-05-20T00:58:23;102516.37;;;11.79;98.82
44872;BME280;30602;51.060;17.226;2023-05-20T01:02:05;102512.57;;;11.80;98.04
44872;BME280;30602;51.060;17.226;2023-05-20T01:05:36;102513.74;;;11.86;97.00
44872;BME280;30602;51.060;17.226;2023-05-20T01:09:13;102520.64;;;11.85;97.22
44872;BME280;30602;51.060;17.226;2023-05-20T01:12:43;102513.66;;;11.82;97.66
44872;BME280;30602;51.060;17.226;2023-05-20T01:16:08;102514.36;;;11.75;98.05
44872;BME280;30602;51.060;17.226;2023-05-20T01:20:11;102498.12;;;11.69;98.37
44872;BME280;30602;51.060;17.226;2023-05-20T01:23:56;102489.88;;;11.63;98.67
44872;BME280;30602;51.060;17.226;2023-05-20T01:27:36;102500.00;;;11.63;98.61
44872;BME280;30602;51.060;17.226;2023-05-20T01:31:17;102517.80;;;11.61;98.76
44872;BME280;30602;51.060;17.226;2023-05-20T01:34:38;102523.12;;;11.61;98.60
44872;BME280;30602;51.060;17.226;2023-05-20T01:38:18;102524.44;;;11.64;97.92
44872;BME280;30602;51.060;17.226;2023-05-20T01:41:57;102521.30;;;11.64;97.95
44872;BME280;30602;51.060;17.226;2023-05-20T01:45:51;102519.27;;;11.66;97.88
44872;BME280;30602;51.060;17.226;2023-05-20T01:49:31;102518.60;;;11.69;97.43
44872;BME280;30602;51.060;17.226;2023-05-20T01:53:11;102516.28;;;11.71;97.83
44872;BME280;30602;51.060;17.226;2023-05-20T01:56:59;102512.56;;;11.67;98.55
44872;BME280;30602;51.060;17.226;2023-05-20T02:00:47;102509.14;;;11.65;98.92
44872;BME280;30602;51.060;17.226;2023-05-20T02:04:22;102510.76;;;11.54;99.29
44872;BME280;30602;51.060;17.226;2023-05-20T02:08:37;102514.02;;;11.56;99.98
44872;BME280;30602;51.060;17.226;2023-05-20T02:12:09;102515.72;;;11.59;99.73
44872;BME280;30602;51.060;17.226;2023-05-20T02:15:53;102522.29;;;11.55;100.00
44872;BME280;30602;51.060;17.226;2023-05-20T02:19:16;102520.33;;;11.61;100.00
44872;BME280;30602;51.060;17.226;2023-05-20T02:22:43;102516.95;;;11.58;100.00
44872;BME280;30602;51.060;17.226;2023-05-20T02:26:54;102517.20;;;11.62;100.00
44872;BME280;30602;51.060;17.226;2023-05-20T02:30:39;102512.07;;;11.58;100.00
44872;BME280;30602;51.060;17.226;2023-05-20T02:34:22;102515.53;;;11.54;100.00
44872;BME280;30602;51.060;17.226;2023-05-20T02:42:08;102488.67;;;11.24;100.00
44872;BME280;30602;51.060;17.226;2023-05-20T02:46:12;102514.75;;;11.40;100.00
44872;BME280;30602;51.060;17.226;2023-05-20T02:50:06;102507.16;;;11.40;100.00
44872;BME280;30602;51.060;17.226;2023-05-20T02:57:58;102507.97;;;11.39;100.00
44872;BME280;30602;51.060;17.226;2023-05-20T03:02:04;102510.66;;;11.40;100.00
44872;BME280;30602;51.060;17.226;2023-05-20T03:06:21;102512.38;;;11.48;100.00
44872;BME280;30602;51.060;17.226;2023-05-20T03:10:14;102485.87;;;11.32;100.00
44872;BME280;30602;51.060;17.226;2023-05-20T03:13:48;102504.45;;;11.49;100.00
44872;BME280;30602;51.060;17.226;2023-05-20T03:17:44;102499.68;;;11.40;100.00
44872;BME280;30602;51.060;17.226;2023-05-20T03:21:54;102507.99;;;11.42;100.00
44872;BME280;30602;51.060;17.226;2023-05-20T03:25:48;102507.95;;;11.43;100.00
44872;BME280;30602;51.060;17.226;2023-05-20T03:29:32;102505.29;;;11.43;100.00
44872;BME280;30602;51.060;17.226;2023-05-20T03:32:58;102510.28;;;11.42;100.00
44872;BME280;30602;51.060;17.226;2023-05-20T03:36:39;102512.93;;;11.38;100.00
44872;BME280;30602;51.060;17.226;2023-05-20T03:40:38;102511.73;;;11.44;100.00
44872;BME280;30602;51.060;17.226;2023-05-20T03:44:15;102516.91;;;11.53;100.00
44872;BME280;30602;51.060;17.226;2023-05-20T03:48:16;102520.52;;;11.54;100.00
44872;BME280;30602;51.060;17.226;2023-05-20T03:52:16;102499.62;;;11.45;100.00
44872;BME280;30602;51.060;17.226;2023-05-20T03:56:19;102520.83;;;11.58;100.00
44872;BME280;30602;51.060;17.226;2023-05-20T03:59:43;102525.18;;;11.56;100.00
44872;BME280;30602;51.060;17.226;2023-05-20T04:03:23;102530.54;;;11.56;100.00
44872;BME280;30602;51.060;17.226;2023-05-20T04:07:30;102536.18;;;11.55;100.00
44872;BME280;30602;51.060;17.226;2023-05-20T04:11:09;102537.17;;;11.48;100.00
44872;BME280;30602;51.060;17.226;2023-05-20T04:14:51;102540.36;;;11.55;100.00
44872;BME280;30602;51.060;17.226;2023-05-20T04:18:50;102542.26;;;11.56;100.00
44872;BME280;30602;51.060;17.226;2023-05-20T04:22:17;102538.87;;;11.59;100.00
44872;BME280;30602;51.060;17.226;2023-05-20T04:25:42;102537.35;;;11.68;100.00
44872;BME280;30602;51.060;17.226;2023-05-20T04:29:36;102538.00;;;11.68;100.00
44872;BME280;30602;51.060;17.226;2023-05-20T04:33:13;102538.39;;;11.76;100.00
44872;BME280;30602;51.060;17.226;2023-05-20T04:36:40;102537.22;;;11.74;100.00
44872;BME280;30602;51.060;17.226;2023-05-20T04:40:05;102522.63;;;11.66;100.00
44872;BME280;30602;51.060;17.226;2023-05-20T04:43:41;102530.88;;;11.73;100.00
44872;BME280;30602;51.060;17.226;2023-05-20T04:47:25;102529.84;;;11.75;100.00
44872;BME280;30602;51.060;17.226;2023-05-20T04:51:22;102530.60;;;11.79;100.00
44872;BME280;30602;51.060;17.226;2023-05-20T04:55:07;102531.69;;;11.74;100.00
44872;BME280;30602;51.060;17.226;2023-05-20T04:59:46;102523.37;;;11.72;100.00
44872;BME280;30602;51.060;17.226;2023-05-20T05:03:34;102534.45;;;11.78;100.00
44872;BME280;30602;51.060;17.226;2023-05-20T05:07:07;102525.77;;;11.87;100.00
44872;BME280;30602;51.060;17.226;2023-05-20T05:10:59;102520.36;;;11.93;99.00
44872;BME280;30602;51.060;17.226;2023-05-20T05:14:58;102518.51;;;11.95;98.84
44872;BME280;30602;51.060;17.226;2023-05-20T05:18:32;102521.97;;;11.93;98.86
44872;BME280;30602;51.060;17.226;2023-05-20T05:26:09;102524.06;;;11.95;99.03
44872;BME280;30602;51.060;17.226;2023-05-20T05:34:12;102529.49;;;12.00;99.51
44872;BME280;30602;51.060;17.226;2023-05-20T05:37:45;102533.34;;;12.02;98.82
44872;BME280;30602;51.060;17.226;2023-05-20T05:45:34;102530.91;;;12.13;99.17
44872;BME280;30602;51.060;17.226;2023-05-20T05:49:16;102534.29;;;12.14;98.29
44872;BME280;30602;51.060;17.226;2023-05-20T05:53:26;102541.08;;;12.11;98.12
44872;BME280;30602;51.060;17.226;2023-05-20T05:57:10;102536.34;;;12.09;98.16
44872;BME280;30602;51.060;17.226;2023-05-20T06:00:35;102529.95;;;12.05;98.70
44872;BME280;30602;51.060;17.226;2023-05-20T06:04:31;102534.05;;;11.97;99.17
44872;BME280;30602;51.060;17.226;2023-05-20T06:08:13;102543.18;;;12.02;98.81
44872;BME280;30602;51.060;17.226;2023-05-20T06:11:35;102548.94;;;12.03;99.00
44872;BME280;30602;51.060;17.226;2023-05-20T06:15:33;102545.01;;;12.10;99.69
44872;BME280;30602;51.060;17.226;2023-05-20T06:18:57;102548.94;;;12.06;99.10
44872;BME280;30602;51.060;17.226;2023-05-20T06:22:22;102543.77;;;11.98;98.54
44872;BME280;30602;51.060;17.226;2023-05-20T06:26:00;102543.41;;;12.03;98.60
44872;BME280;30602;51.060;17.226;2023-05-20T06:29:51;102543.95;;;12.07;97.76
44872;BME280;30602;51.060;17.226;2023-05-20T06:33:21;102538.72;;;12.16;97.53
44872;BME280;30602;51.060;17.226;2023-05-20T06:37:06;102540.66;;;12.25;97.83
44872;BME280;30602;51.060;17.226;2023-05-20T06:40:51;102533.77;;;12.09;96.18
44872;BME280;30602;51.060;17.226;2023-05-20T06:44:19;102555.75;;;12.17;96.47
44872;BME280;30602;51.060;17.226;2023-05-20T06:47:42;102554.95;;;12.18;96.34
44872;BME280;30602;51.060;17.226;2023-05-20T06:51:27;102556.29;;;12.13;96.13
44872;BME280;30602;51.060;17.226;2023-05-20T06:55:55;102552.52;;;12.13;96.20
44872;BME280;30602;51.060;17.226;2023-05-20T06:59:40;102556.88;;;12.20;95.86
44872;BME280;30602;51.060;17.226;2023-05-20T07:03:05;102557.66;;;12.20;96.38
44872;BME280;30602;51.060;17.226;2023-05-20T07:06:52;102554.25;;;12.23;96.22
44872;BME280;30602;51.060;17.226;2023-05-20T07:10:16;102554.04;;;12.32;95.91
44872;BME280;30602;51.060;17.226;2023-05-20T07:14:15;102558.09;;;12.36;95.33
44872;BME280;30602;51.060;17.226;2023-05-20T07:17:40;102550.87;;;12.44;96.22
44872;BME280;30602;51.060;17.226;2023-05-20T07:21:01;102546.66;;;12.49;95.37
44872;BME280;30602;51.060;17.226;2023-05-20T07:25:21;102543.20;;;12.49;95.54
44872;BME280;30602;51.060;17.226;2023-05-20T07:29:19;102534.55;;;12.48;94.84
44872;BME280;30602;51.060;17.226;2023-05-20T07:33:10;102531.21;;;12.58;94.91
44872;BME280;30602;51.060;17.226;2023-05-20T07:37:26;102530.34;;;12.62;94.22
44872;BME280;30602;51.060;17.226;2023-05-20T07:40:55;102533.83;;;12.70;94.13
44872;BME280;30602;51.060;17.226;2023-05-20T07:45:13;102539.06;;;12.70;93.20
44872;BME280;30602;51.060;17.226;2023-05-20T07:49:11;102535.87;;;12.74;92.77
44872;BME280;30602;51.060;17.226;2023-05-20T07:53:07;102528.98;;;12.84;92.50
44872;BME280;30602;51.060;17.226;2023-05-20T07:56:52;102537.39;;;13.01;92.98
44872;BME280;30602;51.060;17.226;2023-05-20T08:00:44;102534.51;;;13.14;93.31
44872;BME280;30602;51.060;17.226;2023-05-20T08:04:06;102525.15;;;13.08;91.93
44872;BME280;30602;51.060;17.226;2023-05-20T08:07:29;102522.95;;;13.23;91.92
44872;BME280;30602;51.060;17.226;2023-05-20T08:10:52;102518.71;;;13.22;92.17
44872;BME280;30602;51.060;17.226;2023-05-20T08:14:45;102512.44;;;13.33;91.45
44872;BME280;30602;51.060;17.226;2023-05-20T08:18:38;102508.20;;;13.54;90.64
44872;BME280;30602;51.060;17.226;2023-05-20T08:22:51;102504.31;;;13.72;90.46
44872;BME280;30602;51.060;17.226;2023-05-20T08:26:21;102494.07;;;13.89;90.05
44872;BME280;30602;51.060;17.226;2023-05-20T08:29:51;102491.41;;;13.96;88.22
44872;BME280;30602;51.060;17.226;2023-05-20T08:33:12;102486.88;;;14.05;88.25
44872;BME280;30602;51.060;17.226;2023-05-20T08:41:26;102479.84;;;14.28;86.62
44872;BME280;30602;51.060;17.226;2023-05-20T08:44:52;102473.22;;;14.53;85.50
44872;BME280;30602;51.060;17.226;2023-05-20T08:48:45;102474.18;;;14.46;85.03
44872;BME280;30602;51.060;17.226;2023-05-20T08:52:09;102476.33;;;14.61;85.64
44872;BME280;30602;51.060;17.226;2023-05-20T08:56:17;102473.65;;;14.67;84.99
44872;BME280;30602;51.060;17.226;2023-05-20T08:59:48;102472.78;;;15.00;84.88
44872;BME280;30602;51.060;17.226;2023-05-20T09:04:00;102472.63;;;14.83;83.34
44872;BME280;30602;51.060;17.226;2023-05-20T09:07:41;102475.80;;;14.87;83.53
44872;BME280;30602;51.060;17.226;2023-05-20T09:15:44;102481.80;;;15.10;82.94
44872;BME280;30602;51.060;17.226;2023-05-20T09:20:09;102464.30;;;15.07;83.17
44872;BME280;30602;51.060;17.226;2023-05-20T09:24:01;102481.08;;;15.12;82.22
44872;BME280;30602;51.060;17.226;2023-05-20T09:27:42;102477.56;;;15.30;83.18
44872;BME280;30602;51.060;17.226;2023-05-20T09:31:29;102471.45;;;15.36;82.27
44872;BME280;30602;51.060;17.226;2023-05-20T09:34:54;102467.42;;;15.21;82.87
44872;BME280;30602;51.060;17.226;2023-05-20T09:43:01;102455.92;;;15.31;81.62
44872;BME280;30602;51.060;17.226;2023-05-20T09:47:43;102445.95;;;15.49;83.14
44872;BME280;30602;51.060;17.226;2023-05-20T09:51:18;102448.84;;;15.61;82.10
44872;BME280;30602;51.060;17.226;2023-05-20T09:55:23;102447.31;;;15.55;81.22
44872;BME280;30602;51.060;17.226;2023-05-20T09:58:58;102446.00;;;15.61;80.90
44872;BME280;30602;51.060;17.226;2023-05-20T10:02:52;102443.66;;;15.87;81.41
44872;BME280;30602;51.060;17.226;2023-05-20T10:06:36;102442.03;;;15.73;83.32
44872;BME280;30602;51.060;17.226;2023-05-20T10:14:28;102439.80;;;15.86;82.57
44872;BME280;30602;51.060;17.226;2023-05-20T10:18:08;102435.48;;;16.06;79.82
44872;BME280;30602;51.060;17.226;2023-05-20T10:22:11;102442.56;;;16.34;81.32
44872;BME280;30602;51.060;17.226;2023-05-20T10:25:57;102442.81;;;16.32;81.15
44872;BME280;30602;51.060;17.226;2023-05-20T10:29:20;102441.81;;;16.29;81.51
44872;BME280;30602;51.060;17.226;2023-05-20T10:33:55;102436.28;;;16.40;80.22
44872;BME280;30602;51.060;17.226;2023-05-20T10:37:42;102423.03;;;16.41;79.18
44872;BME280;30602;51.060;17.226;2023-05-20T10:41:34;102415.50;;;16.40;81.32
44872;BME280;30602;51.060;17.226;2023-05-20T10:45:56;102413.20;;;16.33;80.23
44872;BME280;30602;51.060;17.226;2023-05-20T10:49:44;102416.84;;;16.39;79.70
44872;BME280;30602;51.060;17.226;2023-05-20T10:53:51;102415.48;;;16.42;80.03
44872;BME280;30602;51.060;17.226;2023-05-20T10:57:15;102409.03;;;16.49;79.86
44872;BME280;30602;51.060;17.226;2023-05-20T11:00:35;102404.00;;;16.41;80.27
44872;BME280;30602;51.060;17.226;2023-05-20T11:04:42;102401.38;;;16.40;79.64
44872;BME280;30602;51.060;17.226;2023-05-20T11:08:52;102395.00;;;16.63;80.84
44872;BME280;30602;51.060;17.226;2023-05-20T11:12:48;102390.34;;;16.67;80.76
44872;BME280;30602;51.060;17.226;2023-05-20T11:16:41;102388.28;;;16.84;80.07
44872;BME280;30602;51.060;17.226;2023-05-20T11:20:07;102379.65;;;16.88;78.11
44872;BME280;30602;51.060;17.226;2023-05-20T11:23:38;102376.28;;;16.84;79.53
44872;BME280;30602;51.060;17.226;2023-05-20T11:27:33;102373.73;;;16.70;78.15
44872;BME280;30602;51.060;17.226;2023-05-20T11:31:27;102367.20;;;16.57;79.27
44872;BME280;30602;51.060;17.226;2023-05-20T11:35:24;102368.25;;;16.64;79.63
44872;BME280;30602;51.060;17.226;2023-05-20T11:39:20;102368.37;;;16.96;80.06
44872;BME280;30602;51.060;17.226;2023-05-20T11:42:59;102370.35;;;17.03;79.66
44872;BME280;30602;51.060;17.226;2023-05-20T11:51:04;102375.20;;;17.10;80.09
44872;BME280;30602;51.060;17.226;2023-05-20T11:55:11;102364.39;;;16.99;80.12
44872;BME280;30602;51.060;17.226;2023-05-20T11:59:23;102385.87;;;16.91;79.84
44872;BME280;30602;51.060;17.226;2023-05-20T12:07:17;102377.25;;;16.90;78.66
44872;BME280;30602;51.060;17.226;2023-05-20T12:11:57;102371.05;;;16.96;79.73
44872;BME280;30602;51.060;17.226;2023-05-20T12:16:23;102372.04;;;16.92;78.85
44872;BME280;30602;51.060;17.226;2023-05-20T12:20:16;102369.56;;;17.04;78.79
44872;BME280;30602;51.060;17.226;2023-05-20T12:23:53;102366.95;;;16.97;80.22
44872;BME280;30602;51.060;17.226;2023-05-20T12:28:07;102360.41;;;16.97;81.25
44872;BME280;30602;51.060;17.226;2023-05-20T12:32:32;102362.15;;;16.88;79.89
44872;BME280;30602;51.060;17.226;2023-05-20T12:35:54;102349.79;;;17.06;80.42
44872;BME280;30602;51.060;17.226;2023-05-20T12:40:26;102327.18;;;17.35;78.04
44872;BME280;30602;51.060;17.226;2023-05-20T12:44:08;102328.48;;;17.50;76.56
44872;BME280;30602;51.060;17.226;2023-05-20T12:47:28;102326.90;;;17.51;78.36
44872;BME280;30602;51.060;17.226;2023-05-20T12:51:31;102324.41;;;17.25;80.29
44872;BME280;30602;51.060;17.226;2023-05-20T12:54:55;102319.91;;;17.32;79.36
44872;BME280;30602;51.060;17.226;2023-05-20T12:58:20;102317.73;;;17.40;80.79
44872;BME280;30602;51.060;17.226;2023-05-20T13:02:16;102314.24;;;17.48;78.39
44872;BME280;30602;51.060;17.226;2023-05-20T13:05:39;102313.87;;;17.68;78.05
44872;BME280;30602;51.060;17.226;2023-05-20T13:09:00;102318.01;;;17.64;77.39
44872;BME280;30602;51.060;17.226;2023-05-20T13:12:36;102310.47;;;17.44;78.54
44872;BME280;30602;51.060;17.226;2023-05-20T13:16:25;102304.09;;;17.77;78.91
44872;BME280;30602;51.060;17.226;2023-05-20T13:20:28;102305.41;;;17.74;77.08
44872;BME280;30602;51.060;17.226;2023-05-20T13:24:07;102299.95;;;17.91;76.07
44872;BME280;30602;51.060;17.226;2023-05-20T13:27:40;102299.87;;;18.02;76.51
44872;BME280;30602;51.060;17.226;2023-05-20T13:35:46;102291.13;;;18.36;76.85
44872;BME280;30602;51.060;17.226;2023-05-20T13:39:33;102289.98;;;18.20;76.24
44872;BME280;30602;51.060;17.226;2023-05-20T13:43:22;102291.52;;;18.07;75.49
44872;BME280;30602;51.060;17.226;2023-05-20T13:47:10;102270.31;;;18.02;75.96
44872;BME280;30602;51.060;17.226;2023-05-20T13:51:23;102269.95;;;18.43;76.30
44872;BME280;30602;51.060;17.226;2023-05-20T13:55:27;102261.11;;;18.83;74.64
44872;BME280;30602;51.060;17.226;2023-05-20T13:58:50;102260.98;;;19.00;75.77
44872;BME280;30602;51.060;17.226;2023-05-20T14:02:20;102229.12;;;18.54;74.42
44872;BME280;30602;51.060;17.226;2023-05-20T14:05:46;102252.97;;;18.63;77.11
44872;BME280;30602;51.060;17.226;2023-05-20T14:09:24;102247.77;;;18.69;74.76
44872;BME280;30602;51.060;17.226;2023-05-20T14:12:42;102246.37;;;18.93;73.81
44872;BME280;30602;51.060;17.226;2023-05-20T14:16:52;102239.38;;;18.98;73.82
44872;BME280;30602;51.060;17.226;2023-05-20T14:20:14;102229.30;;;19.15;74.96
44872;BME280;30602;51.060;17.226;2023-05-20T14:24:11;102224.35;;;19.29;73.32
44872;BME280;30602;51.060;17.226;2023-05-20T14:27:59;102226.54;;;19.25;73.88
44872;BME280;30602;51.060;17.226;2023-05-20T14:31:41;102217.75;;;18.99;74.71
44872;BME280;30602;51.060;17.226;2023-05-20T14:35:43;102210.52;;;18.64;75.82
44872;BME280;30602;51.060;17.226;2023-05-20T14:39:09;102202.28;;;18.62;78.00
44872;BME280;30602;51.060;17.226;2023-05-20T14:42:53;102183.94;;;18.65;76.57
44872;BME280;30602;51.060;17.226;2023-05-20T14:47:18;102191.02;;;18.68;76.03
44872;BME280;30602;51.060;17.226;2023-05-20T14:50:59;102196.38;;;18.94;76.44
44872;BME280;30602;51.060;17.226;2023-05-20T14:55:03;102198.61;;;18.96;75.58
44872;BME280;30602;51.060;17.226;2023-05-20T14:59:18;102193.69;;;19.11;76.10
44872;BME280;30602;51.060;17.226;2023-05-20T15:02:43;102184.73;;;19.27;74.41
44872;BME280;30602;51.060;17.226;2023-05-20T15:06:25;102185.96;;;19.19;75.83
44872;BME280;30602;51.060;17.226;2023-05-20T15:13:44;102166.26;;;19.23;76.06
44872;BME280;30602;51.060;17.226;2023-05-20T15:17:31;102159.01;;;19.20;76.43
44872;BME280;30602;51.060;17.226;2023-05-20T15:21:14;102141.46;;;19.19;75.52
44872;BME280;30602;51.060;17.226;2023-05-20T15:24:35;102142.30;;;19.43;75.82
44872;BME280;30602;51.060;17.226;2023-05-20T15:28:50;102147.85;;;19.66;75.58
44872;BME280;30602;51.060;17.226;2023-05-20T15:32:43;102141.87;;;19.77;75.47
44872;BME280;30602;51.060;17.226;2023-05-20T15:36:37;102134.63;;;19.84;77.00
44872;BME280;30602;51.060;17.226;2023-05-20T15:40:59;102118.95;;;19.69;74.28
44872;BME280;30602;51.060;17.226;2023-05-20T15:45:37;102128.05;;;19.75;77.52
44872;BME280;30602;51.060;17.226;2023-05-20T15:49:51;102119.13;;;19.68;75.69
44872;BME280;30602;51.060;17.226;2023-05-20T15:54:07;102120.46;;;19.86;76.29
44872;BME280;30602;51.060;17.226;2023-05-20T15:57:28;102118.01;;;19.91;74.62
44872;BME280;30602;51.060;17.226;2023-05-20T16:00:52;102114.96;;;19.87;75.01
44872;BME280;30602;51.060;17.226;2023-05-20T16:04:32;102112.58;;;19.87;74.63
44872;BME280;30602;51.060;17.226;2023-05-20T16:08:13;102111.02;;;19.89;74.95
44872;BME280;30602;51.060;17.226;2023-05-20T16:11:57;102100.68;;;19.92;76.14
44872;BME280;30602;51.060;17.226;2023-05-20T16:15:45;102102.37;;;19.91;75.23
44872;BME280;30602;51.060;17.226;2023-05-20T16:23:44;102089.76;;;19.82;77.14
44872;BME280;30602;51.060;17.226;2023-05-20T16:27:21;102094.92;;;19.92;78.70
44872;BME280;30602;51.060;17.226;2023-05-20T16:31:14;102090.46;;;19.90;75.58
44872;BME280;30602;51.060;17.226;2023-05-20T16:34:40;102089.90;;;20.05;75.58
44872;BME280;30602;51.060;17.226;2023-05-20T16:39:11;102081.32;;;20.00;75.40
44872;BME280;30602;51.060;17.226;2023-05-20T16:43:03;102079.47;;;20.03;75.34
44872;BME280;30602;51.060;17.226;2023-05-20T16:46:26;102078.00;;;20.01;76.68
44872;BME280;30602;51.060;17.226;2023-05-20T16:50:14;102076.98;;;20.06;76.37
44872;BME280;30602;51.060;17.226;2023-05-20T16:54:28;102071.45;;;20.15;78.97
44872;BME280;30602;51.060;17.226;2023-05-20T16:58:06;102076.77;;;20.15;77.32
44872;BME280;30602;51.060;17.226;2023-05-20T17:02:09;102077.72;;;20.29;75.69
44872;BME280;30602;51.060;17.226;2023-05-20T17:06:00;102080.02;;;20.22;76.24
44872;BME280;30602;51.060;17.226;2023-05-20T17:09:27;102089.98;;;20.04;76.49
44872;BME280;30602;51.060;17.226;2023-05-20T17:18:22;102088.54;;;20.06;77.03
44872;BME280;30602;51.060;17.226;2023-05-20T17:22:11;102082.45;;;19.93;77.54
44872;BME280;30602;51.060;17.226;2023-05-20T17:26:14;102082.03;;;19.69;80.23
44872;BME280;30602;51.060;17.226;2023-05-20T17:29:59;102079.94;;;19.44;82.49
44872;BME280;30602;51.060;17.226;2023-05-20T17:34:13;102078.20;;;19.20;84.43
44872;BME280;30602;51.060;17.226;2023-05-20T17:37:34;102082.57;;;18.97;86.27
44872;BME280;30602;51.060;17.226;2023-05-20T17:40:55;102079.50;;;18.86;86.38
44872;BME280;30602;51.060;17.226;2023-05-20T17:44:36;102080.80;;;19.03;84.33
44872;BME280;30602;51.060;17.226;2023-05-20T17:48:24;102078.00;;;18.68;87.02
44872;BME280;30602;51.060;17.226;2023-05-20T17:52:23;102080.36;;;18.52;87.73
44872;BME280;30602;51.060;17.226;2023-05-20T17:55:47;102075.86;;;18.42;89.18
44872;BME280;30602;51.060;17.226;2023-05-20T17:59:31;102053.55;;;18.27;89.38
44872;BME280;30602;51.060;17.226;2023-05-20T18:03:37;102074.80;;;18.11;91.16
44872;BME280;30602;51.060;17.226;2023-05-20T18:07:32;102070.27;;;17.92;92.56
44872;BME280;30602;51.060;17.226;2023-05-20T18:12:06;102070.26;;;17.76;93.52
44872;BME280;30602;51.060;17.226;2023-05-20T18:15:53;102071.42;;;17.69;93.62
44872;BME280;30602;51.060;17.226;2023-05-20T18:20:12;102069.04;;;17.51;94.41
44872;BME280;30602;51.060;17.226;2023-05-20T18:23:56;102069.59;;;17.39;93.77
44872;BME280;30602;51.060;17.226;2023-05-20T18:27:46;102072.72;;;17.46;92.83
44872;BME280;30602;51.060;17.226;2023-05-20T18:31:24;102066.91;;;17.26;94.53
44872;BME280;30602;51.060;17.226;2023-05-20T18:35:09;102061.48;;;17.34;94.25
44872;BME280;30602;51.060;17.226;2023-05-20T18:39:07;102057.82;;;17.25;94.44
44872;BME280;30602;51.060;17.226;2023-05-20T18:47:28;102055.64;;;17.26;92.45
44872;BME280;30602;51.060;17.226;2023-05-20T18:51:10;102058.62;;;17.06;93.75
44872;BME280;30602;51.060;17.226;2023-05-20T18:54:58;102055.43;;;16.94;94.42
44872;BME280;30602;51.060;17.226;2023-05-20T18:58:23;102058.54;;;16.71;95.20
44872;BME280;30602;51.060;17.226;2023-05-20T19:02:01;102057.52;;;16.43;96.58
44872;BME280;30602;51.060;17.226;2023-05-20T19:05:54;102062.31;;;16.05;96.30
44872;BME280;30602;51.060;17.226;2023-05-20T19:10:07;102057.98;;;15.87;97.67
44872;BME280;30602;51.060;17.226;2023-05-20T19:14:07;102043.66;;;15.58;97.42
44872;BME280;30602;51.060;17.226;2023-05-20T19:21:30;102062.58;;;15.29;99.08
44872;BME280;30602;51.060;17.226;2023-05-20T19:29:00;102059.45;;;15.00;99.98
44872;BME280;30602;51.060;17.226;2023-05-20T19:32:44;102063.79;;;14.68;98.68
44872;BME280;30602;51.060;17.226;2023-05-20T19:37:20;102066.88;;;14.55;100.00
44872;BME280;30602;51.060;17.226;2023-05-20T19:41:16;102077.40;;;14.45;100.00
44872;BME280;30602;51.060;17.226;2023-05-20T19:45:09;102080.77;;;14.33;100.00
44872;BME280;30602;51.060;17.226;2023-05-20T19:48:36;102084.41;;;14.27;100.00
44872;BME280;30602;51.060;17.226;2023-05-20T19:52:33;102087.88;;;14.09;100.00
44872;BME280;30602;51.060;17.226;2023-05-20T19:56:21;102090.09;;;14.10;100.00
44872;BME280;30602;51.060;17.226;2023-05-20T20:00:40;102086.16;;;14.25;100.00
44872;BME280;30602;51.060;17.226;2023-05-20T20:04:40;102080.10;;;14.21;100.00
44872;BME280;30602;51.060;17.226;2023-05-20T20:08:09;102088.62;;;14.63;100.00
44872;BME280;30602;51.060;17.226;2023-05-20T20:12:02;102087.06;;;14.38;100.00
44872;BME280;30602;51.060;17.226;2023-05-20T20:16:02;102086.10;;;14.42;100.00
44872;BME280;30602;51.060;17.226;2023-05-20T20:20:16;102087.21;;;14.34;100.00
44872;BME280;30602;51.060;17.226;2023-05-20T20:24:02;102086.95;;;14.39;100.00
44872;BME280;30602;51.060;17.226;2023-05-20T20:28:14;102085.43;;;14.18;100.00
44872;BME280;30602;51.060;17.226;2023-05-20T20:31:38;102093.80;;;14.06;100.00
44872;BME280;30602;51.060;17.226;2023-05-20T20:35:04;102090.58;;;14.10;100.00
44872;BME280;30602;51.060;17.226;2023-05-20T20:39:05;102086.47;;;14.15;100.00
44872;BME280;30602;51.060;17.226;2023-05-20T20:43:07;102093.94;;;14.08;100.00
44872;BME280;30602;51.060;17.226;2023-05-20T20:46:39;102094.85;;;14.09;100.00